createdAt,value
2022-10-16T00:00:59.422Z,10.70
2022-10-16T00:03:29.555Z,10.02
2022-10-16T00:06:17.261Z,10.15
2022-10-16T00:08:44.898Z,12.35
2022-10-16T00:11:18.973Z,17.92
2022-10-16T00:13:49.390Z,12.07
2022-10-16T00:16:16.918Z,10.75
2022-10-16T00:18:44.012Z,12.60
2022-10-16T00:21:14.641Z,13.77
2022-10-16T00:23:44.165Z,9.65
2022-10-16T00:26:14.290Z,14.10
2022-10-16T00:28:41.458Z,12.43
2022-10-16T00:31:12.950Z,22.60
2022-10-16T00:33:41.223Z,11.55
2022-10-16T00:36:10.945Z,7.60
2022-10-16T00:38:38.991Z,10.80
2022-10-16T00:41:08.923Z,8.25
2022-10-16T00:43:43.135Z,11.02
2022-10-16T00:46:42.982Z,8.30
2022-10-16T00:49:15.853Z,14.65
2022-10-16T00:51:46.545Z,10.55
2022-10-16T00:54:21.360Z,17.70
2022-10-16T00:56:48.843Z,12.13
2022-10-16T00:59:20.336Z,13.73
2022-10-16T01:01:47.244Z,12.27
2022-10-16T01:04:14.205Z,10.32
2022-10-16T01:06:49.762Z,11.63
2022-10-16T01:09:32.762Z,13.68
2022-10-16T01:12:07.292Z,11.90
2022-10-16T01:14:54.355Z,11.05
2022-10-16T01:20:11.105Z,12.02
2022-10-16T01:22:55.256Z,11.20
2022-10-16T01:25:50.431Z,9.00
2022-10-16T01:28:20.369Z,11.57
2022-10-16T01:30:48.628Z,12.65
2022-10-16T01:33:22.395Z,14.27
2022-10-16T01:35:56.071Z,11.73
2022-10-16T01:38:37.895Z,13.57
2022-10-16T01:41:16.086Z,17.08
2022-10-16T01:43:57.115Z,13.57
2022-10-16T01:46:25.474Z,12.90
2022-10-16T01:48:53.546Z,11.73
2022-10-16T01:51:21.929Z,13.18
2022-10-16T01:53:55.512Z,11.00
2022-10-16T01:56:24.694Z,11.52
2022-10-16T01:58:57.067Z,14.10
2022-10-16T02:01:27.935Z,15.90
2022-10-16T02:04:01.199Z,12.75
2022-10-16T02:06:28.138Z,10.93
2022-10-16T02:08:55.107Z,12.63
2022-10-16T02:11:22.156Z,12.77
2022-10-16T02:14:07.814Z,10.90
2022-10-16T02:16:46.503Z,10.75
2022-10-16T02:19:21.280Z,12.32
2022-10-16T02:22:01.238Z,14.98
2022-10-16T02:24:50.035Z,17.02
2022-10-16T02:27:22.677Z,15.90
2022-10-16T02:29:59.766Z,13.18
2022-10-16T02:32:32.228Z,17.30
2022-10-16T02:35:01.470Z,11.07
2022-10-16T02:37:29.556Z,14.65
2022-10-16T02:39:58.847Z,17.92
2022-10-16T02:42:43.898Z,10.73
2022-10-16T02:45:12.398Z,15.45
2022-10-16T02:47:39.389Z,21.65
2022-10-16T02:50:06.728Z,11.80
2022-10-16T02:52:33.502Z,16.73
2022-10-16T02:55:00.433Z,11.95
2022-10-16T02:57:27.791Z,10.95
2022-10-16T02:59:55.087Z,13.20
2022-10-16T03:02:22.256Z,14.02
2022-10-16T03:04:49.184Z,11.60
2022-10-16T03:07:16.211Z,11.57
2022-10-16T03:09:43.094Z,12.73
2022-10-16T03:12:09.913Z,14.18
2022-10-16T03:14:50.763Z,8.93
2022-10-16T03:17:18.074Z,12.07
2022-10-16T03:19:44.971Z,11.68
2022-10-16T03:22:12.075Z,12.88
2022-10-16T03:24:39.376Z,11.25
2022-10-16T03:27:06.953Z,12.68
2022-10-16T03:29:34.085Z,14.45
2022-10-16T03:32:01.599Z,11.88
2022-10-16T03:34:29.022Z,15.73
2022-10-16T03:36:56.174Z,10.18
2022-10-16T03:39:22.965Z,13.38
2022-10-16T03:41:49.754Z,12.90
2022-10-16T03:44:16.595Z,15.80
2022-10-16T03:46:43.613Z,13.80
2022-10-16T03:49:10.461Z,10.98
2022-10-16T03:51:37.390Z,10.25
2022-10-16T03:54:04.346Z,12.88
2022-10-16T03:56:31.161Z,10.27
2022-10-16T03:58:58.065Z,10.93
2022-10-16T04:01:25.082Z,15.35
2022-10-16T04:03:51.906Z,14.30
2022-10-16T04:06:18.928Z,11.90
2022-10-16T04:08:46.056Z,17.08
2022-10-16T04:11:13.129Z,13.93
2022-10-16T04:13:40.822Z,13.10
2022-10-16T04:16:07.691Z,11.50
2022-10-16T04:18:34.574Z,9.60
2022-10-16T04:21:06.045Z,19.10
2022-10-16T04:23:33.567Z,16.13
2022-10-16T04:26:00.969Z,13.38
2022-10-16T04:28:27.944Z,12.35
2022-10-16T04:30:55.006Z,11.63
2022-10-16T04:33:21.876Z,13.30
2022-10-16T04:35:48.651Z,17.60
2022-10-16T04:38:15.607Z,15.48
2022-10-16T04:40:43.552Z,13.98
2022-10-16T04:43:10.746Z,15.85
2022-10-16T04:45:37.754Z,15.82
2022-10-16T04:48:04.951Z,13.32
2022-10-16T04:50:31.772Z,16.25
2022-10-16T04:52:58.604Z,17.58
2022-10-16T04:55:25.462Z,12.98
2022-10-16T04:57:52.299Z,14.02
2022-10-16T05:00:19.551Z,11.88
2022-10-16T05:02:46.365Z,21.02
2022-10-16T05:05:13.245Z,12.95
2022-10-16T05:07:40.074Z,11.23
2022-10-16T05:10:07.232Z,14.65
2022-10-16T05:12:34.182Z,15.50
2022-10-16T05:15:01.170Z,14.70
2022-10-16T05:17:28.584Z,12.40
2022-10-16T05:19:55.871Z,13.02
2022-10-16T05:22:22.983Z,14.45
2022-10-16T05:24:49.752Z,12.35
2022-10-16T05:27:20.228Z,13.93
2022-10-16T05:29:48.466Z,12.77
2022-10-16T05:32:17.107Z,16.10
2022-10-16T05:34:44.535Z,14.02
2022-10-16T05:37:12.755Z,12.93
2022-10-16T05:39:39.948Z,18.48
2022-10-16T05:42:07.326Z,12.95
2022-10-16T05:47:01.107Z,15.93
2022-10-16T05:49:28.095Z,10.95
2022-10-16T05:51:55.018Z,11.35
2022-10-16T05:54:21.848Z,14.60
2022-10-16T05:56:48.629Z,17.85
2022-10-16T05:59:15.446Z,17.67
2022-10-16T06:01:42.330Z,15.35
2022-10-16T06:06:38.237Z,11.55
2022-10-16T06:09:05.777Z,12.82
2022-10-16T06:11:33.987Z,11.68
2022-10-16T06:14:08.117Z,10.05
2022-10-16T06:16:36.555Z,13.55
2022-10-16T06:19:07.322Z,11.77
2022-10-16T06:21:34.556Z,13.43
2022-10-16T06:24:01.347Z,9.77
2022-10-16T06:26:46.915Z,13.98
2022-10-16T06:29:13.697Z,10.55
2022-10-16T06:31:40.668Z,15.00
2022-10-16T06:34:11.759Z,9.55
2022-10-16T06:36:39.527Z,9.82
2022-10-16T06:39:08.398Z,10.77
2022-10-16T06:41:35.621Z,12.95
2022-10-16T06:44:02.983Z,13.48
2022-10-16T06:46:29.866Z,11.27
2022-10-16T06:48:56.835Z,13.35
2022-10-16T06:51:25.309Z,15.98
2022-10-16T06:54:02.950Z,14.20
2022-10-16T06:56:32.474Z,16.27
2022-10-16T06:59:00.089Z,10.65
2022-10-16T07:01:28.976Z,18.23
2022-10-16T07:03:55.934Z,16.08
2022-10-16T07:06:25.368Z,17.38
2022-10-16T07:08:52.841Z,13.48
2022-10-16T07:11:23.024Z,11.93
2022-10-16T07:13:55.090Z,10.63
2022-10-16T07:16:29.198Z,14.10
2022-10-16T07:19:00.323Z,9.73
2022-10-16T07:21:30.308Z,9.77
2022-10-16T07:24:02.513Z,8.65
2022-10-16T07:26:32.202Z,9.07
2022-10-16T07:28:59.592Z,8.52
2022-10-16T07:31:26.926Z,10.10
2022-10-16T07:33:54.899Z,12.18
2022-10-16T07:36:22.894Z,8.60
2022-10-16T07:38:51.080Z,9.32
2022-10-16T07:41:21.177Z,9.23
2022-10-16T07:43:53.178Z,14.20
2022-10-16T07:46:22.677Z,7.55
2022-10-16T07:48:49.883Z,7.55
2022-10-16T07:51:19.982Z,10.25
2022-10-16T07:53:47.975Z,6.97
2022-10-16T07:56:15.607Z,9.93
2022-10-16T07:58:42.582Z,7.57
2022-10-16T08:01:11.540Z,10.30
2022-10-16T08:03:38.608Z,9.32
2022-10-16T08:06:06.427Z,7.25
2022-10-16T08:08:51.906Z,9.18
2022-10-16T08:11:18.995Z,9.52
2022-10-16T08:13:45.827Z,11.45
2022-10-16T08:16:12.767Z,8.25
2022-10-16T08:18:41.343Z,7.68
2022-10-16T08:21:16.828Z,8.57
2022-10-16T08:23:45.950Z,10.38
2022-10-16T08:26:13.206Z,6.03
2022-10-16T08:28:58.597Z,6.78
2022-10-16T08:31:25.836Z,6.03
2022-10-16T08:33:53.684Z,7.18
2022-10-16T08:36:20.944Z,5.95
2022-10-16T08:38:51.722Z,8.63
2022-10-16T08:41:52.168Z,9.13
2022-10-16T08:44:46.027Z,12.07
2022-10-16T08:47:26.448Z,7.43
2022-10-16T08:50:03.017Z,7.93
2022-10-16T08:55:03.206Z,12.63
2022-10-16T08:57:32.606Z,15.10
2022-10-16T09:00:06.596Z,8.10
2022-10-16T09:02:39.867Z,6.85
2022-10-16T09:05:37.577Z,7.80
2022-10-16T09:08:37.965Z,11.20
2022-10-16T09:11:10.517Z,5.47
2022-10-16T09:13:57.594Z,9.82
2022-10-16T09:19:52.631Z,9.20
2022-10-16T09:22:22.247Z,4.55
2022-10-16T09:24:49.526Z,5.18
2022-10-16T09:27:16.717Z,7.43
2022-10-16T09:29:43.734Z,6.97
2022-10-16T09:32:19.257Z,7.10
2022-10-16T09:34:53.517Z,6.55
2022-10-16T09:37:23.765Z,6.70
2022-10-16T09:39:52.976Z,6.80
2022-10-16T09:42:32.486Z,11.32
2022-10-16T09:44:59.677Z,8.20
2022-10-16T09:47:31.575Z,8.07
2022-10-16T09:50:07.161Z,5.85
2022-10-16T09:52:34.480Z,6.47
2022-10-16T09:55:16.468Z,8.98
2022-10-16T09:57:56.318Z,12.95
2022-10-16T10:00:25.492Z,5.03
2022-10-16T10:05:28.568Z,5.85
2022-10-16T10:08:07.426Z,10.85
2022-10-16T10:10:41.096Z,6.60
2022-10-16T10:13:36.988Z,6.93
2022-10-16T10:16:03.939Z,6.55
2022-10-16T10:18:32.987Z,8.35
2022-10-16T10:21:02.209Z,10.07
2022-10-16T10:23:31.503Z,9.27
2022-10-16T10:26:21.898Z,13.70
2022-10-16T10:29:22.294Z,6.78
2022-10-16T10:31:58.181Z,8.75
2022-10-16T10:34:39.130Z,6.72
2022-10-16T10:37:22.075Z,7.57
2022-10-16T10:40:15.912Z,13.27
2022-10-16T10:42:56.122Z,5.60
2022-10-16T10:45:37.174Z,9.23
2022-10-16T10:48:22.720Z,9.95
2022-10-16T10:51:11.554Z,12.13
2022-10-16T10:53:50.331Z,8.73
2022-10-16T10:56:45.901Z,8.45
2022-10-16T10:59:49.602Z,10.10
2022-10-16T11:02:39.334Z,16.83
2022-10-16T11:05:19.321Z,10.40
2022-10-16T11:08:10.011Z,12.10
2022-10-16T11:11:03.509Z,12.18
2022-10-16T11:13:50.925Z,7.40
2022-10-16T11:16:24.218Z,9.90
2022-10-16T11:18:59.750Z,8.93
2022-10-16T11:21:31.172Z,10.60
2022-10-16T11:24:05.586Z,11.02
2022-10-16T11:26:36.994Z,12.48
2022-10-16T11:29:10.129Z,9.30
2022-10-16T11:31:51.402Z,12.85
2022-10-16T11:34:40.114Z,8.75
2022-10-16T11:37:12.013Z,8.55
2022-10-16T11:39:43.954Z,11.30
2022-10-16T11:42:38.287Z,10.32
2022-10-16T11:45:08.169Z,8.98
2022-10-16T11:48:03.365Z,11.20
2022-10-16T11:50:42.684Z,10.35
2022-10-16T11:53:44.973Z,12.65
2022-10-16T11:56:20.472Z,16.45
2022-10-16T11:58:53.362Z,14.95
2022-10-16T12:01:39.923Z,9.90
2022-10-16T12:04:46.502Z,10.02
2022-10-16T12:07:19.207Z,12.00
2022-10-16T12:09:46.250Z,8.25
2022-10-16T12:12:31.677Z,8.48
2022-10-16T12:15:17.544Z,9.70
2022-10-16T12:17:49.598Z,9.85
2022-10-16T12:20:21.162Z,12.95
2022-10-16T12:22:56.935Z,9.68
2022-10-16T12:25:32.003Z,9.17
2022-10-16T12:28:21.701Z,7.20
2022-10-16T12:30:58.423Z,10.43
2022-10-16T12:33:31.279Z,7.93
2022-10-16T12:36:00.421Z,7.60
2022-10-16T12:38:33.389Z,7.38
2022-10-16T12:41:06.298Z,11.20
2022-10-16T12:43:33.018Z,11.43
2022-10-16T12:46:07.012Z,6.57
2022-10-16T12:48:48.252Z,15.88
2022-10-16T12:51:31.205Z,9.77
2022-10-16T12:54:06.210Z,10.45
2022-10-16T12:57:14.328Z,10.38
2022-10-16T13:02:35.822Z,12.00
2022-10-16T13:05:05.395Z,7.32
2022-10-16T13:07:42.647Z,6.97
2022-10-16T13:10:57.315Z,11.40
2022-10-16T13:13:58.964Z,9.00
2022-10-16T13:16:40.550Z,9.00
2022-10-16T13:19:31.618Z,11.43
2022-10-16T13:22:17.222Z,7.38
2022-10-16T13:25:00.688Z,7.32
2022-10-16T13:27:33.588Z,11.82
2022-10-16T13:30:10.884Z,11.20
2022-10-16T13:32:37.886Z,10.68
2022-10-16T13:35:19.529Z,10.93
2022-10-16T13:37:46.424Z,10.77
2022-10-16T13:40:23.673Z,20.08
2022-10-16T13:42:52.293Z,14.02
2022-10-16T13:45:24.232Z,8.55
2022-10-16T13:47:51.132Z,12.65
2022-10-16T13:50:19.982Z,11.50
2022-10-16T13:52:46.822Z,13.20
2022-10-16T13:55:17.976Z,14.98
2022-10-16T13:57:45.599Z,14.05
2022-10-16T14:00:20.354Z,10.07
2022-10-16T14:02:54.484Z,10.05
2022-10-16T14:05:21.472Z,18.95
2022-10-16T14:07:52.225Z,21.73
2022-10-16T14:10:37.676Z,14.95
2022-10-16T14:13:07.802Z,12.15
2022-10-16T14:15:36.778Z,11.82
2022-10-16T14:18:04.711Z,15.85
2022-10-16T14:20:35.048Z,15.68
2022-10-16T14:23:03.516Z,12.63
2022-10-16T14:25:32.927Z,10.88
2022-10-16T14:28:16.130Z,10.27
2022-10-16T14:30:57.472Z,7.45
2022-10-16T14:33:30.814Z,20.02
2022-10-16T14:36:05.242Z,15.40
2022-10-16T14:38:33.473Z,8.68
2022-10-16T14:41:01.626Z,8.25
2022-10-16T14:43:40.488Z,7.53
2022-10-16T14:46:19.442Z,9.90
2022-10-16T14:48:52.042Z,20.48
2022-10-16T14:51:20.559Z,7.50
2022-10-16T14:53:48.033Z,10.65
2022-10-16T14:56:21.718Z,12.75
2022-10-16T14:58:50.754Z,15.73
2022-10-16T15:01:17.654Z,16.45
2022-10-16T15:03:45.022Z,16.15
2022-10-16T15:06:16.374Z,19.17
2022-10-16T15:08:43.656Z,12.27
2022-10-16T15:11:19.315Z,10.93
2022-10-16T15:13:47.119Z,10.83
2022-10-16T15:16:16.969Z,9.93
2022-10-16T15:18:44.383Z,7.35
2022-10-16T15:21:32.275Z,8.07
2022-10-16T15:24:00.637Z,9.95
2022-10-16T15:26:29.515Z,14.88
2022-10-16T15:28:56.927Z,15.85
2022-10-16T15:31:24.483Z,18.08
2022-10-16T15:33:57.206Z,13.50
2022-10-16T15:36:32.053Z,12.63
2022-10-16T15:38:58.873Z,11.82
2022-10-16T15:41:25.993Z,17.65
2022-10-16T15:43:53.481Z,12.32
2022-10-16T15:46:22.465Z,11.93
2022-10-16T15:48:50.900Z,16.58
2022-10-16T15:51:19.191Z,17.98
2022-10-16T15:53:47.581Z,21.63
2022-10-16T15:56:15.415Z,37.55
2022-10-16T15:58:42.359Z,25.55
2022-10-16T16:01:11.103Z,19.95
2022-10-16T16:03:43.683Z,17.33
2022-10-16T16:06:13.751Z,22.80
2022-10-16T16:08:41.137Z,27.00
2022-10-16T16:11:10.497Z,26.52
2022-10-16T16:13:41.251Z,18.60
2022-10-16T16:16:16.465Z,20.75
2022-10-16T16:18:44.269Z,17.23
2022-10-16T16:21:12.750Z,35.20
2022-10-16T16:23:39.602Z,38.55
2022-10-16T16:26:15.343Z,32.33
2022-10-16T16:28:44.589Z,31.00
2022-10-16T16:31:11.542Z,28.20
2022-10-16T16:33:38.613Z,38.60
2022-10-16T16:36:11.476Z,36.70
2022-10-16T16:38:39.945Z,35.85
2022-10-16T16:41:17.593Z,34.03
2022-10-16T16:43:44.889Z,28.70
2022-10-16T16:46:12.693Z,31.33
2022-10-16T16:48:39.770Z,30.77
2022-10-16T16:51:08.147Z,33.08
2022-10-16T16:53:36.595Z,30.05
2022-10-16T16:56:07.285Z,28.88
2022-10-16T16:58:34.809Z,25.48
2022-10-16T17:01:28.724Z,25.80
2022-10-16T17:03:53.112Z,25.98
2022-10-16T17:06:22.178Z,28.02
2022-10-16T17:08:49.927Z,30.70
2022-10-16T17:11:24.459Z,27.25
2022-10-16T17:13:56.461Z,28.10
2022-10-16T17:16:33.808Z,31.48
2022-10-16T17:21:30.754Z,28.35
2022-10-16T17:23:58.005Z,22.42
2022-10-16T17:26:25.799Z,26.60
2022-10-16T17:28:58.225Z,25.75
2022-10-16T17:31:45.835Z,23.10
2022-10-16T17:34:13.486Z,23.08
2022-10-16T17:36:44.319Z,27.50
2022-10-16T17:39:13.206Z,20.42
2022-10-16T17:41:40.250Z,21.77
2022-10-16T17:44:08.326Z,25.08
2022-10-16T17:46:39.937Z,25.95
2022-10-16T17:49:07.995Z,23.20
2022-10-16T17:51:34.912Z,23.08
2022-10-16T17:54:02.360Z,26.98
2022-10-16T17:56:30.118Z,27.95
2022-10-16T17:59:02.021Z,26.35
2022-10-16T18:01:32.116Z,23.00
2022-10-16T18:04:12.528Z,25.20
2022-10-16T18:06:41.708Z,29.10
2022-10-16T18:09:09.637Z,25.27
2022-10-16T18:11:36.924Z,25.13
2022-10-16T18:14:04.706Z,21.73
2022-10-16T18:16:32.397Z,25.80
2022-10-16T18:18:59.595Z,28.23
2022-10-16T18:21:27.694Z,30.85
2022-10-16T18:23:54.981Z,25.73
2022-10-16T18:26:23.549Z,25.77
2022-10-16T18:28:55.836Z,24.88
2022-10-16T18:31:23.835Z,37.22
2022-10-16T18:33:51.562Z,26.63
2022-10-16T18:36:24.365Z,27.92
2022-10-16T18:38:51.989Z,26.75
2022-10-16T18:41:19.505Z,27.48
2022-10-16T18:43:46.656Z,26.05
2022-10-16T18:46:17.687Z,28.75
2022-10-16T18:48:45.267Z,24.75
2022-10-16T18:51:34.296Z,25.70
2022-10-16T18:54:13.006Z,24.17
2022-10-16T18:56:40.555Z,25.13
2022-10-16T18:59:09.085Z,24.95
2022-10-16T19:01:38.855Z,27.27
2022-10-16T19:04:12.858Z,26.02
2022-10-16T19:06:45.261Z,25.77
2022-10-16T19:09:14.044Z,22.48
2022-10-16T19:11:42.282Z,26.02
2022-10-16T19:14:10.982Z,24.33
2022-10-16T19:16:38.845Z,27.52
2022-10-16T19:19:07.953Z,28.55
2022-10-16T19:21:39.838Z,27.63
2022-10-16T19:24:07.064Z,28.17
2022-10-16T19:26:36.826Z,30.23
2022-10-16T19:29:07.356Z,25.60
2022-10-16T19:31:34.635Z,27.77
2022-10-16T19:34:03.595Z,34.60
2022-10-16T19:36:35.534Z,27.02
2022-10-16T19:39:06.930Z,30.42
2022-10-16T19:41:36.147Z,27.67
2022-10-16T19:44:04.856Z,35.58
2022-10-16T19:46:33.395Z,30.98
2022-10-16T19:49:02.971Z,30.75
2022-10-16T19:51:31.024Z,36.97
2022-10-16T19:54:00.335Z,36.75
2022-10-16T19:56:28.976Z,33.55
2022-10-16T19:58:57.920Z,35.58
2022-10-16T20:01:27.349Z,35.92
2022-10-16T20:03:54.336Z,38.20
2022-10-16T20:06:21.474Z,40.40
2022-10-16T20:08:51.778Z,40.45
2022-10-16T20:11:28.637Z,41.15
2022-10-16T20:13:55.954Z,39.17
2022-10-16T20:16:22.875Z,40.30
2022-10-16T20:18:51.189Z,37.00
2022-10-16T20:21:21.027Z,43.05
2022-10-16T20:23:49.154Z,42.15
2022-10-16T20:26:16.987Z,37.70
2022-10-16T20:28:44.828Z,41.05
2022-10-16T20:31:22.585Z,36.55
2022-10-16T20:33:50.937Z,36.60
2022-10-16T20:36:18.557Z,45.53
2022-10-16T20:38:45.807Z,46.80
2022-10-16T20:41:14.078Z,38.35
2022-10-16T20:46:13.740Z,40.28
2022-10-16T20:48:44.417Z,41.97
2022-10-16T20:51:24.707Z,42.10
2022-10-16T20:54:03.227Z,39.00
2022-10-16T20:56:32.246Z,45.35
2022-10-16T20:58:59.392Z,41.83
2022-10-16T21:01:28.505Z,45.00
2022-10-16T21:03:58.188Z,42.90
2022-10-16T21:06:28.731Z,45.90
2022-10-16T21:08:55.635Z,43.88
2022-10-16T21:11:25.430Z,51.90
2022-10-16T21:13:54.438Z,50.28
2022-10-16T21:16:21.857Z,50.67
2022-10-16T21:18:49.137Z,47.83
2022-10-16T21:21:20.742Z,52.33
2022-10-16T21:23:49.295Z,49.97
2022-10-16T21:26:18.310Z,52.97
2022-10-16T21:28:45.487Z,52.20
2022-10-16T21:31:22.067Z,56.63
2022-10-16T21:36:30.918Z,52.20
2022-10-16T21:39:02.215Z,45.63
2022-10-16T21:41:29.929Z,44.47
2022-10-16T21:43:57.698Z,43.55
2022-10-16T21:46:27.401Z,49.65
2022-10-16T21:48:58.899Z,46.70
2022-10-16T21:51:27.799Z,44.15
2022-10-16T21:53:55.384Z,44.92
2022-10-16T21:56:23.317Z,43.38
2022-10-16T21:58:50.533Z,48.85
2022-10-16T22:01:20.664Z,48.30
2022-10-16T22:03:47.996Z,47.35
2022-10-16T22:06:17.158Z,56.17
2022-10-16T22:08:47.730Z,45.42
2022-10-16T22:11:17.766Z,43.67
2022-10-16T22:13:46.740Z,45.17
2022-10-16T22:16:13.654Z,56.20
2022-10-16T22:18:40.933Z,43.00
2022-10-16T22:21:09.023Z,41.65
2022-10-16T22:23:36.861Z,49.08
2022-10-16T22:26:09.582Z,50.90
2022-10-16T22:28:37.839Z,47.75
2022-10-16T22:36:07.661Z,49.53
2022-10-16T22:38:36.434Z,57.33
2022-10-16T22:41:08.464Z,55.72
2022-10-16T22:43:37.362Z,59.00
2022-10-16T22:46:09.682Z,49.88
2022-10-16T22:48:36.943Z,57.83
2022-10-16T22:51:05.570Z,59.97
2022-10-16T22:53:33.301Z,54.55
2022-10-16T22:56:00.261Z,56.30
2022-10-16T22:58:27.358Z,56.80
2022-10-16T23:00:54.502Z,54.85
2022-10-16T23:03:22.421Z,51.40
2022-10-16T23:05:49.486Z,47.20
2022-10-16T23:08:16.529Z,51.10
2022-10-16T23:10:46.005Z,44.05
2022-10-16T23:13:13.729Z,45.90
2022-10-16T23:15:41.901Z,47.75
2022-10-16T23:18:09.323Z,48.47
2022-10-16T23:20:39.641Z,45.55
2022-10-16T23:23:06.696Z,47.83
2022-10-16T23:25:33.719Z,43.42
2022-10-16T23:28:00.535Z,40.78
2022-10-16T23:30:27.434Z,37.00
2022-10-16T23:32:54.273Z,39.65
2022-10-16T23:35:21.119Z,40.97
2022-10-16T23:37:48.283Z,39.08
2022-10-16T23:40:15.177Z,41.33
2022-10-16T23:42:41.970Z,39.33
2022-10-16T23:45:09.149Z,38.90
2022-10-16T23:47:36.029Z,35.33
2022-10-16T23:50:02.954Z,36.22
2022-10-16T23:52:29.890Z,41.45
2022-10-16T23:54:56.723Z,38.72
2022-10-16T23:57:23.566Z,37.17
2022-10-16T23:59:50.507Z,36.67
